Tyler Pounds Regional Airport
KTYR : rendu visible

Aérodrome :











RETROUVEZ-NOUS SUR...

 
LOGIN :

S'inscrire | Disclaimer

   EN    FR    IT 

 









Légende :    VFR   VFR Marginal   IFR   IFR Intensif   IFR Très Intensif
Visi : 
Plafond : 
>= 8 km
>= 3000ft
5 à 8 km
1000 à 3000 ft
1500m à 5 km
500 à 1000 ft
800 à 1500m
200 à 500 ft
< 800m
< 200 ft
Symboles :   Orages  Brouillard  Fortes neiges  Fortes précipitations  Vent > 20 kt






- Altitude de l'aérodrome : 544 ft
- Code IATA : TYR


KTYR - Tyler Pounds Regional

DERNIER METAR :
  • 230053Z 16005KT 10SM CLR 10/00 A3024 RMK AO2 SLP239 T01000000

METARs EXPIRÉS :
  • 222353Z 14007KT 10SM CLR 12/01 A3023 RMK AO2 SLP237 T01220006 10139 20106 56021
  • 222253Z 16007KT 10SM CLR 13/M01 A3024 RMK AO2 SLP239 T01331006

TAF KTYR
Valide du 23 à 00h jusqu'au 24 à 00h UTC


222340Z 2300/2324 16007KT P6SM BKN060
FM230300 15008KT P6SM SCT250
FM230900 17006KT P6SM BKN150
FM231200 16009KT P6SM OVC050
FM231500 16008KT P6SM VCSH OVC015
FM232100 16009KT 2SM -SHRA BR OVC007



MET'MAP, la Météo Aéronautique d'un coup d'oeil ! - Copyright ORBIFLY Décembre 2007 - Disclaimer

ORBIFLY MET'MAP TEAM :

Programmation & Développement : Alexandra Zaïnal
Sur une idée originale de : Baudouin d'Aumeries
Assistance à la programmation : Marc-Olivier Méhu
Soutien technique & logistique : Manuel Goepfert

Contact : metmap@orbifly.com




SOURCES & CREDITS :

   NOAA       Earth
Advisory